»·PEaware :: WAT175 KLAS-KSAN

WAT175 :: KLAS-KSAN

FLIGHT INFORMATION

Flight Status: Arrived
Operator:
Walker Air Transport
More flights by this operator :: More flights under this callsign
Pilot: Michael C. (27126)
Aircraft: BOEING 737-800
(B738)
More flights by this aircraft type
Origin: KLAS McCarran Intl
United States
Destination: KSAN San Diego Intl-Lindbergh
United States
More flights between these airports :: More routes between these airports
Route: BOACH8 LVELL LUCKI1
File this flight plan on PilotEdge
Remarks: RMK / SIMBRIEF
Altitude:
(Current/Filed)
28,000ft
Speed:
(Current/Filed)
439kts
Departed: 02-Aug-20 08:20 AM
Arrived: 02-Aug-20 09:02 AM
Distance/Time
Traveled:
225nm/0:42
Distance/Time
To Go:
Arrived

Flight Plot

Page will automatically refresh every two minutes.

Flight plan parsing failed; only flown route is shown


Map Options




Map Legend


Flown Route
Filed Route
Departure Airport
Arrival Airport
Navaid (VOR, NDB)
Fix

Horizontal Profiles

Position Reports

Time Latitude Longitude Heading Altitude Ground
Speed
02-Aug-20 07:27 36.080311 -115.147276 61 2121ft 0kts
02-Aug-20 07:28 36.080311 -115.147276 61 2121ft 0kts
02-Aug-20 07:29 36.080311 -115.147276 61 2121ft 0kts
02-Aug-20 07:30 36.080311 -115.147276 61 2121ft 0kts
02-Aug-20 07:31 36.080311 -115.147276 61 2121ft 0kts
02-Aug-20 07:32 36.080311 -115.147276 61 2121ft 0kts
02-Aug-20 07:33 36.080311 -115.147276 61 2121ft 0kts
02-Aug-20 07:34 36.080311 -115.147276 61 2121ft 0kts
02-Aug-20 07:35 36.080311 -115.147276 61 2121ft 0kts
02-Aug-20 07:36 36.080311 -115.147276 61 2121ft 0kts
02-Aug-20 07:37 36.080311 -115.147276 61 2121ft 0kts
02-Aug-20 07:38 36.080311 -115.147276 61 2121ft 0kts
02-Aug-20 07:39 36.080311 -115.147276 61 2121ft 0kts
02-Aug-20 07:40 36.080311 -115.147276 61 2121ft 0kts
02-Aug-20 07:41 36.080311 -115.147276 61 2121ft 0kts
02-Aug-20 07:42 36.080311 -115.147276 61 2121ft 0kts
02-Aug-20 07:43 36.080311 -115.147276 61 2121ft 0kts
02-Aug-20 07:44 36.080311 -115.147276 61 2121ft 0kts
02-Aug-20 07:45 36.080311 -115.147276 61 2121ft 0kts
02-Aug-20 07:46 36.080311 -115.147276 61 2121ft 0kts
02-Aug-20 07:47 36.080311 -115.147276 61 2121ft 0kts
02-Aug-20 07:48 36.080311 -115.147276 61 2121ft 0kts
02-Aug-20 07:49 36.080311 -115.147276 61 2121ft 0kts
02-Aug-20 07:50 36.080311 -115.147276 61 2121ft 0kts
02-Aug-20 07:51 36.080311 -115.147276 61 2121ft 0kts
02-Aug-20 07:52 36.080311 -115.147276 61 2121ft 0kts
02-Aug-20 07:53 36.080311 -115.147276 61 2121ft 0kts
02-Aug-20 07:54 36.080311 -115.147276 61 2121ft 0kts
02-Aug-20 07:55 36.080311 -115.147276 61 2121ft 0kts
02-Aug-20 07:56 36.080311 -115.147276 61 2121ft 0kts
02-Aug-20 07:57 36.080311 -115.147276 61 2121ft 0kts
02-Aug-20 07:58 36.080311 -115.147276 61 2121ft 0kts
02-Aug-20 07:59 36.080311 -115.147276 61 2121ft 0kts
02-Aug-20 08:00 36.080311 -115.147276 61 2121ft 0kts
02-Aug-20 08:01 36.080311 -115.147276 61 2121ft 0kts
02-Aug-20 08:02 36.080311 -115.147276 61 2121ft 0kts
02-Aug-20 08:03 36.080311 -115.147276 61 2121ft 0kts
02-Aug-20 08:04 36.080123 -115.147612 36 2121ft 2kts
02-Aug-20 08:05 36.079620 -115.147698 336 2121ft 1kts
02-Aug-20 08:06 36.079577 -115.147673 335 2121ft 0kts
02-Aug-20 08:07 36.079577 -115.147673 335 2121ft 0kts
02-Aug-20 08:08 36.080598 -115.148239 336 2121ft 17kts
02-Aug-20 08:09 36.081315 -115.150860 226 2121ft 10kts
02-Aug-20 08:10 36.081472 -115.153569 298 2121ft 0kts
02-Aug-20 08:11 36.082405 -115.155433 334 2121ft 12kts
02-Aug-20 08:12 36.086924 -115.157808 2 2121ft 19kts
02-Aug-20 08:13 36.091493 -115.155405 26 2121ft 17kts
02-Aug-20 08:14 36.095471 -115.153101 23 2121ft 14kts
02-Aug-20 08:15 36.097921 -115.152383 306 2121ft 0kts
02-Aug-20 08:16 36.097921 -115.152383 306 2121ft 0kts
02-Aug-20 08:17 36.097921 -115.152383 306 2121ft 0kts
02-Aug-20 08:18 36.098061 -115.153699 233 2121ft 18kts
02-Aug-20 08:19 36.069247 -115.169359 208 2903ft 186kts
02-Aug-20 08:20 36.019221 -115.205309 223 5187ft 250kts
02-Aug-20 08:21 35.974162 -115.280670 223 8167ft 288kts
02-Aug-20 08:22 35.895573 -115.311108 185 10763ft 332kts
02-Aug-20 08:23 35.793294 -115.308007 174 12089ft 394kts
02-Aug-20 08:24 35.685024 -115.295565 176 14512ft 409kts
02-Aug-20 08:25 35.585674 -115.297436 184 16870ft 408kts
02-Aug-20 08:26 35.469781 -115.302980 183 18949ft 422kts
02-Aug-20 08:27 35.348136 -115.307785 183 20384ft 444kts
02-Aug-20 08:28 35.221168 -115.313629 182 21739ft 465kts
02-Aug-20 08:29 35.089804 -115.318290 182 23299ft 476kts
02-Aug-20 08:30 34.955911 -115.323263 182 24923ft 481kts
02-Aug-20 08:31 34.823710 -115.334190 189 26329ft 486kts
02-Aug-20 08:32 34.692280 -115.374810 198 27945ft 484kts
02-Aug-20 08:33 34.563904 -115.427272 200 28070ft 487kts
02-Aug-20 08:34 34.436017 -115.482155 200 28100ft 486kts
02-Aug-20 08:35 34.311498 -115.546781 209 28101ft 485kts
02-Aug-20 08:36 34.203961 -115.612934 205 28103ft 495kts
02-Aug-20 08:37 34.075346 -115.677414 203 28100ft 494kts
02-Aug-20 08:39 33.945809 -115.739432 203 27945ft 494kts
02-Aug-20 08:40 33.818755 -115.801256 204 27884ft 467kts
02-Aug-20 08:41 33.707168 -115.854842 203 27895ft 421kts
02-Aug-20 08:42 33.596495 -115.906562 203 27558ft 419kts
02-Aug-20 08:43 33.503358 -115.981503 230 25888ft 392kts
02-Aug-20 08:44 33.435262 -116.085349 236 24528ft 395kts
02-Aug-20 08:45 33.372593 -116.191563 235 22342ft 383kts
02-Aug-20 08:46 33.295581 -116.274189 208 20239ft 373kts
02-Aug-20 08:47 33.204115 -116.328288 206 18255ft 360kts
02-Aug-20 08:48 33.115984 -116.379822 206 16476ft 345kts
02-Aug-20 08:49 33.030766 -116.429568 207 14489ft 337kts
02-Aug-20 08:50 32.957354 -116.492630 223 12884ft 318kts
02-Aug-20 08:51 32.892764 -116.557971 223 11854ft 269kts
02-Aug-20 08:52 32.836837 -116.614675 220 11543ft 265kts
02-Aug-20 08:53 32.790560 -116.660925 221 10762ft 247kts
02-Aug-20 08:54 32.750879 -116.725992 241 9877ft 245kts
02-Aug-20 08:55 32.716581 -116.799330 241 7715ft 293kts
02-Aug-20 08:56 32.685231 -116.889897 250 5540ft 282kts
02-Aug-20 08:57 32.683207 -116.983435 285 3007ft 280kts
02-Aug-20 08:57 32.699133 -117.048305 286 1992ft 204kts
02-Aug-20 08:59 32.713501 -117.109075 287 1417ft 160kts
02-Aug-20 08:59 32.723629 -117.149469 285 634ft 158kts
02-Aug-20 09:00 32.734528 -117.193689 285 25ft 87kts
02-Aug-20 09:02 32.734746 -117.199244 236 25ft 17kts
02-Aug-20 09:02 32.733915 -117.200424 255 25ft 0kts

Navigation Log

Ident Type
Flight plan parsing failed, navigation log unavailable